createdAt,value
2018-11-07T00:01:38.943Z,93.61
2018-11-07T00:04:05.883Z,93.38
2018-11-07T00:06:32.827Z,93.35
2018-11-07T00:08:59.775Z,93.74
2018-11-07T00:11:26.730Z,93.08
2018-11-07T00:13:53.677Z,93.57
2018-11-07T00:16:20.616Z,93.84
2018-11-07T00:18:47.582Z,93.91
2018-11-07T00:21:14.494Z,93.92
2018-11-07T00:23:41.447Z,93.85
2018-11-07T00:26:08.397Z,93.28
2018-11-07T00:28:36.342Z,93.50
2018-11-07T00:31:04.256Z,93.86
2018-11-07T00:33:31.179Z,94.35
2018-11-07T00:35:58.135Z,95.27
2018-11-07T00:38:25.087Z,94.17
2018-11-07T00:40:52.007Z,93.22
2018-11-07T00:43:18.947Z,94.08
2018-11-07T00:45:45.898Z,93.85
2018-11-07T00:48:12.834Z,94.90
2018-11-07T00:50:39.790Z,93.80
2018-11-07T00:53:06.731Z,93.69
2018-11-07T00:55:33.673Z,94.25
2018-11-07T00:58:00.628Z,94.01
2018-11-07T01:00:27.578Z,94.74
2018-11-07T01:02:54.518Z,93.75
2018-11-07T01:05:21.444Z,94.45
2018-11-07T01:07:48.411Z,95.19
2018-11-07T01:10:15.358Z,93.81
2018-11-07T01:12:42.784Z,93.54
2018-11-07T01:15:10.422Z,94.30
2018-11-07T01:17:37.334Z,93.50
2018-11-07T01:20:04.973Z,93.54
2018-11-07T01:22:31.956Z,93.40
2018-11-07T01:24:59.070Z,94.21
2018-11-07T01:27:25.929Z,93.45
2018-11-07T01:29:52.900Z,94.04
2018-11-07T01:32:19.828Z,93.76
2018-11-07T01:34:46.740Z,91.17
2018-11-07T01:37:13.723Z,89.31
2018-11-07T01:39:40.623Z,87.78
2018-11-07T01:42:07.651Z,89.96
2018-11-07T01:44:34.535Z,91.97
2018-11-07T01:47:01.471Z,92.42
2018-11-07T01:49:28.402Z,93.27
2018-11-07T01:51:55.358Z,92.69
2018-11-07T01:54:22.304Z,93.39
2018-11-07T01:56:49.323Z,93.43
2018-11-07T01:59:16.283Z,94.22
2018-11-07T02:01:43.227Z,94.58
2018-11-07T02:04:10.194Z,94.23
2018-11-07T02:06:37.156Z,93.76
2018-11-07T02:09:06.771Z,93.62
2018-11-07T02:11:33.674Z,93.54
2018-11-07T02:14:00.619Z,92.95
2018-11-07T02:16:27.565Z,92.99
2018-11-07T02:18:54.534Z,93.37
2018-11-07T02:21:21.455Z,92.70
2018-11-07T02:23:48.406Z,91.90
2018-11-07T02:26:15.391Z,92.64
2018-11-07T02:28:42.294Z,92.86
2018-11-07T02:31:09.252Z,92.61
2018-11-07T02:33:36.184Z,93.81
2018-11-07T02:36:03.044Z,92.52
2018-11-07T02:38:29.946Z,92.45
2018-11-07T02:40:56.915Z,93.04
2018-11-07T02:43:23.875Z,92.68
2018-11-07T02:45:50.794Z,93.86
2018-11-07T02:48:17.764Z,93.64
2018-11-07T02:50:44.694Z,92.79
2018-11-07T02:53:11.678Z,92.56
2018-11-07T02:55:38.575Z,91.40
2018-11-07T02:58:05.519Z,91.43
2018-11-07T03:00:32.470Z,92.37
2018-11-07T03:02:59.404Z,93.07
2018-11-07T03:05:26.350Z,91.51
2018-11-07T03:07:53.299Z,92.41
2018-11-07T03:10:20.262Z,92.79
2018-11-07T03:12:47.190Z,92.77
2018-11-07T03:15:14.171Z,92.13
2018-11-07T03:17:41.087Z,92.16
2018-11-07T03:20:09.173Z,92.56
2018-11-07T03:22:36.098Z,92.87
2018-11-07T03:25:03.068Z,93.18
2018-11-07T03:27:29.982Z,91.78
2018-11-07T03:29:56.930Z,91.78
2018-11-07T03:32:23.892Z,92.17
2018-11-07T03:34:50.827Z,91.31
2018-11-07T03:37:17.798Z,90.50
2018-11-07T03:39:44.770Z,90.97
2018-11-07T03:42:11.683Z,92.53
2018-11-07T03:44:38.599Z,93.63
2018-11-07T03:47:06.612Z,93.58
2018-11-07T03:49:33.532Z,93.04
2018-11-07T03:52:00.455Z,93.61
2018-11-07T03:54:27.426Z,93.11
2018-11-07T03:56:54.351Z,92.83
2018-11-07T03:59:21.315Z,92.34
2018-11-07T04:01:48.255Z,92.45
2018-11-07T04:04:15.186Z,92.79
2018-11-07T04:06:42.151Z,91.72
2018-11-07T04:09:10.675Z,92.42
2018-11-07T04:11:37.643Z,91.93
2018-11-07T04:14:04.612Z,93.30
2018-11-07T04:16:31.551Z,92.17
2018-11-07T04:18:58.499Z,91.79
2018-11-07T04:21:25.430Z,91.78
2018-11-07T04:23:57.191Z,91.83
2018-11-07T04:26:24.135Z,92.09
2018-11-07T04:28:51.139Z,92.85
2018-11-07T04:31:18.075Z,94.83
2018-11-07T04:33:44.978Z,94.07
2018-11-07T04:36:12.052Z,92.26
2018-11-07T04:38:39.124Z,93.58
2018-11-07T04:41:06.231Z,93.13
2018-11-07T04:43:34.804Z,92.21
2018-11-07T04:46:01.284Z,92.22
2018-11-07T04:48:28.307Z,93.26
2018-11-07T04:50:56.408Z,92.70
2018-11-07T04:53:23.445Z,93.36
2018-11-07T04:55:50.532Z,93.29
2018-11-07T04:58:17.517Z,91.92
2018-11-07T05:00:44.618Z,92.66
2018-11-07T05:03:13.294Z,93.30
2018-11-07T05:05:41.236Z,93.45
2018-11-07T05:08:08.402Z,92.94
2018-11-07T05:10:37.470Z,93.74
2018-11-07T05:13:04.567Z,92.98
2018-11-07T05:15:31.674Z,93.26
2018-11-07T05:17:58.778Z,94.56
2018-11-07T05:20:25.912Z,94.50
2018-11-07T05:22:52.971Z,93.64
2018-11-07T05:25:20.086Z,94.57
2018-11-07T05:27:47.121Z,93.71
2018-11-07T05:30:15.194Z,94.49
2018-11-07T05:32:42.246Z,94.85
2018-11-07T05:35:09.330Z,94.71
2018-11-07T05:37:36.460Z,92.95
2018-11-07T05:40:03.517Z,93.30
2018-11-07T05:42:31.293Z,93.02
2018-11-07T05:44:58.756Z,92.70
2018-11-07T05:47:25.725Z,93.79
2018-11-07T05:49:52.819Z,94.79
2018-11-07T05:52:19.733Z,95.05
2018-11-07T05:54:47.080Z,95.03
2018-11-07T05:57:14.141Z,94.77
2018-11-07T05:59:41.240Z,95.56
2018-11-07T06:02:08.962Z,96.48
2018-11-07T06:04:36.012Z,95.92
2018-11-07T06:07:03.065Z,95.57
2018-11-07T06:09:30.020Z,95.27
2018-11-07T06:11:57.045Z,95.13
2018-11-07T06:14:24.096Z,95.01
2018-11-07T06:16:51.169Z,94.08
2018-11-07T06:19:18.152Z,92.59
2018-11-07T06:21:45.219Z,93.01
2018-11-07T06:24:12.475Z,93.88
2018-11-07T06:26:39.573Z,94.65
2018-11-07T06:29:06.742Z,95.04
2018-11-07T06:31:33.960Z,94.81
2018-11-07T06:34:01.050Z,93.59
2018-11-07T06:36:28.073Z,93.72
2018-11-07T06:38:55.094Z,93.78
2018-11-07T06:41:22.181Z,94.06
2018-11-07T06:43:49.280Z,93.92
2018-11-07T06:46:17.244Z,93.93
2018-11-07T06:48:44.361Z,91.90
2018-11-07T06:51:12.426Z,92.37
2018-11-07T06:53:39.544Z,91.57
2018-11-07T06:56:06.715Z,92.08
2018-11-07T06:58:33.799Z,93.15
2018-11-07T07:01:01.879Z,93.32
2018-11-07T07:03:28.897Z,92.64
2018-11-07T07:05:57.019Z,91.54
2018-11-07T07:08:24.023Z,92.31
2018-11-07T07:10:50.939Z,90.68
2018-11-07T07:13:18.043Z,91.16
2018-11-07T07:15:45.093Z,91.23
2018-11-07T07:18:12.272Z,91.89
2018-11-07T07:20:40.127Z,91.73
2018-11-07T07:23:07.206Z,92.02
2018-11-07T07:25:34.217Z,91.41
2018-11-07T07:28:01.091Z,92.65
2018-11-07T07:30:28.225Z,93.14
2018-11-07T07:32:55.850Z,93.32
2018-11-07T07:35:23.253Z,93.04
2018-11-07T07:37:50.327Z,93.31
2018-11-07T07:40:17.258Z,93.42
2018-11-07T07:42:44.727Z,93.81
2018-11-07T07:45:14.502Z,93.41
2018-11-07T07:47:41.969Z,93.26
2018-11-07T07:50:10.746Z,94.53
2018-11-07T07:52:37.711Z,94.42
2018-11-07T07:55:05.173Z,94.34
2018-11-07T07:57:32.107Z,94.09
2018-11-07T07:59:59.075Z,93.96
2018-11-07T08:02:26.015Z,95.87
2018-11-07T08:04:52.947Z,97.31
2018-11-07T08:07:19.911Z,97.58
2018-11-07T08:09:46.838Z,96.85
2018-11-07T08:12:13.771Z,96.98
2018-11-07T08:14:40.780Z,96.27
2018-11-07T08:17:07.680Z,96.13
2018-11-07T08:19:34.608Z,95.75
2018-11-07T08:22:01.555Z,94.77
2018-11-07T08:24:28.495Z,94.59
2018-11-07T08:26:55.454Z,94.98
2018-11-07T08:29:22.383Z,94.78
2018-11-07T08:31:49.333Z,94.44
2018-11-07T08:34:16.299Z,94.49
2018-11-07T08:36:43.231Z,94.70
2018-11-07T08:39:11.691Z,93.16
2018-11-07T08:41:38.713Z,92.73
2018-11-07T08:44:05.654Z,92.27
2018-11-07T08:46:32.522Z,92.27
2018-11-07T08:48:59.571Z,92.33
2018-11-07T08:51:26.446Z,91.09
2018-11-07T08:53:53.371Z,90.31
2018-11-07T08:56:20.324Z,89.52
2018-11-07T08:58:47.264Z,87.77
2018-11-07T09:01:14.289Z,87.61
2018-11-07T09:03:41.163Z,86.34
2018-11-07T09:06:08.091Z,86.04
2018-11-07T09:08:35.045Z,86.04
2018-11-07T09:11:01.990Z,84.43
2018-11-07T09:13:28.930Z,84.51
2018-11-07T09:15:55.879Z,82.93
2018-11-07T09:18:22.815Z,82.34
2018-11-07T09:20:49.764Z,82.86
2018-11-07T09:23:16.707Z,82.04
2018-11-07T09:25:43.671Z,82.50
2018-11-07T09:28:10.596Z,82.37
2018-11-07T09:30:37.555Z,81.49
2018-11-07T09:33:04.659Z,81.71
2018-11-07T09:35:31.568Z,81.55
2018-11-07T09:37:58.519Z,80.34
2018-11-07T09:40:25.422Z,80.85
2018-11-07T09:42:52.366Z,79.92
2018-11-07T09:45:20.537Z,79.18
2018-11-07T09:47:47.690Z,78.74
2018-11-07T09:50:15.459Z,79.21
2018-11-07T09:52:42.619Z,78.13
2018-11-07T09:55:10.871Z,78.44
2018-11-07T09:57:38.173Z,78.26
2018-11-07T10:00:07.561Z,77.57
2018-11-07T10:02:34.507Z,78.63
2018-11-07T10:05:01.475Z,78.36
2018-11-07T10:07:28.407Z,78.58
2018-11-07T10:09:55.371Z,79.70
2018-11-07T10:12:22.319Z,80.16
2018-11-07T10:14:49.212Z,78.92
2018-11-07T10:17:16.151Z,78.49
2018-11-07T10:19:43.111Z,78.39
2018-11-07T10:22:10.064Z,76.61
2018-11-07T10:24:37.012Z,75.55
2018-11-07T10:27:04.237Z,74.83
2018-11-07T10:29:31.287Z,74.19
2018-11-07T10:31:58.067Z,75.43
2018-11-07T10:34:25.005Z,74.05
2018-11-07T10:36:51.919Z,73.53
2018-11-07T10:39:18.940Z,73.07
2018-11-07T10:41:45.815Z,73.33
2018-11-07T10:44:12.780Z,73.88
2018-11-07T10:46:39.703Z,73.48
2018-11-07T10:49:06.696Z,73.66
2018-11-07T10:51:33.583Z,72.59
2018-11-07T10:54:00.568Z,72.01
2018-11-07T10:56:27.489Z,71.15
2018-11-07T10:58:54.424Z,70.84
2018-11-07T11:01:27.165Z,70.84
2018-11-07T11:03:54.073Z,71.73
2018-11-07T11:06:21.010Z,71.21
2018-11-07T11:08:47.923Z,70.00
2018-11-07T11:11:14.948Z,69.40
2018-11-07T11:13:41.855Z,69.18
2018-11-07T11:16:08.771Z,68.04
2018-11-07T11:18:35.721Z,67.69
2018-11-07T11:21:02.672Z,67.35
2018-11-07T11:23:29.596Z,67.25
2018-11-07T11:25:56.566Z,69.19
2018-11-07T11:28:23.507Z,67.84
2018-11-07T11:30:50.434Z,68.28
2018-11-07T11:33:17.413Z,68.02
2018-11-07T11:35:44.330Z,66.60
2018-11-07T11:38:11.297Z,65.81
2018-11-07T11:40:38.301Z,66.30
2018-11-07T11:43:05.182Z,65.43
2018-11-07T11:45:32.098Z,66.15
2018-11-07T11:47:59.082Z,65.92
2018-11-07T11:50:26.003Z,64.93
2018-11-07T11:52:52.946Z,64.28
2018-11-07T11:55:19.895Z,64.71
2018-11-07T11:57:47.188Z,65.01
2018-11-07T12:00:15.689Z,66.25
2018-11-07T12:02:42.914Z,64.92
2018-11-07T12:05:11.239Z,65.01
2018-11-07T12:07:38.395Z,65.19
2018-11-07T12:10:10.531Z,64.80
2018-11-07T12:12:37.420Z,63.94
2018-11-07T12:15:04.738Z,64.19
2018-11-07T12:17:31.618Z,65.14
2018-11-07T12:19:58.543Z,63.63
2018-11-07T12:22:25.500Z,63.90
2018-11-07T12:24:52.444Z,64.32
2018-11-07T12:27:19.392Z,63.12
2018-11-07T12:29:46.327Z,63.07
2018-11-07T12:32:13.263Z,62.30
2018-11-07T12:34:40.216Z,61.97
2018-11-07T12:37:07.170Z,63.50
2018-11-07T12:39:34.152Z,62.43
2018-11-07T12:42:01.050Z,63.36
2018-11-07T12:44:27.999Z,62.38
2018-11-07T12:46:54.975Z,61.85
2018-11-07T12:49:21.890Z,60.65
2018-11-07T12:51:48.826Z,61.16
2018-11-07T12:54:15.774Z,61.29
2018-11-07T12:56:42.719Z,61.09
2018-11-07T12:59:10.587Z,60.82
2018-11-07T13:01:37.526Z,61.06
2018-11-07T13:04:05.402Z,61.01
2018-11-07T13:06:32.332Z,61.34
2018-11-07T13:09:00.568Z,60.89
2018-11-07T13:11:29.498Z,61.29
2018-11-07T13:13:56.405Z,61.02
2018-11-07T13:16:23.313Z,59.85
2018-11-07T13:18:50.239Z,60.38
2018-11-07T13:21:17.193Z,60.96
2018-11-07T13:23:44.114Z,61.30
2018-11-07T13:26:11.075Z,60.82
2018-11-07T13:28:42.465Z,61.17
2018-11-07T13:31:09.938Z,61.35
2018-11-07T13:33:37.998Z,59.37
2018-11-07T13:36:05.935Z,60.18
2018-11-07T13:38:33.296Z,61.01
2018-11-07T13:40:59.942Z,60.33
2018-11-07T13:43:26.767Z,61.04
2018-11-07T13:45:53.717Z,61.37
2018-11-07T13:48:20.731Z,62.43
2018-11-07T13:50:47.747Z,62.40
2018-11-07T13:53:14.880Z,61.74
2018-11-07T13:55:42.486Z,62.08
2018-11-07T13:58:09.620Z,61.95
2018-11-07T14:00:36.839Z,61.42
2018-11-07T14:03:04.368Z,60.96
2018-11-07T14:05:31.309Z,61.25
2018-11-07T14:07:58.146Z,61.26
2018-11-07T14:10:25.642Z,61.46
2018-11-07T14:12:52.958Z,60.97
2018-11-07T14:15:19.851Z,61.20
2018-11-07T14:17:46.803Z,61.29
2018-11-07T14:20:13.726Z,62.23
2018-11-07T14:22:40.755Z,62.02
2018-11-07T14:25:08.297Z,63.65
2018-11-07T14:27:35.291Z,63.38
2018-11-07T14:30:02.094Z,64.63
2018-11-07T14:32:29.387Z,65.19
2018-11-07T14:34:56.270Z,63.10
2018-11-07T14:37:23.138Z,64.54
2018-11-07T14:39:50.083Z,65.31
2018-11-07T14:42:17.020Z,66.18
2018-11-07T14:44:43.955Z,66.79
2018-11-07T14:47:10.913Z,66.77
2018-11-07T14:49:37.739Z,66.98
2018-11-07T14:52:04.911Z,68.13
2018-11-07T14:54:32.783Z,67.58
2018-11-07T14:56:59.743Z,68.80
2018-11-07T14:59:26.663Z,69.13
2018-11-07T15:01:54.518Z,68.52
2018-11-07T15:04:21.423Z,69.10
2018-11-07T15:06:48.303Z,69.56
2018-11-07T15:09:15.143Z,67.17
2018-11-07T15:11:42.046Z,70.14
2018-11-07T15:14:08.843Z,70.09
2018-11-07T15:16:35.785Z,71.58
2018-11-07T15:19:02.739Z,71.30
2018-11-07T15:21:29.563Z,71.78
2018-11-07T15:23:56.422Z,73.06
2018-11-07T15:26:23.350Z,73.43
2018-11-07T15:28:50.202Z,74.25
2018-11-07T15:31:17.147Z,74.15
2018-11-07T15:33:43.986Z,74.10
2018-11-07T15:36:11.018Z,75.60
2018-11-07T15:38:37.867Z,76.82
2018-11-07T15:41:04.730Z,75.84
2018-11-07T15:43:31.744Z,78.16
2018-11-07T15:45:58.615Z,78.15
2018-11-07T15:48:25.560Z,78.14
2018-11-07T15:50:58.383Z,76.83
2018-11-07T15:53:25.287Z,76.82
2018-11-07T15:55:52.230Z,75.41
2018-11-07T15:58:20.110Z,74.50
2018-11-07T16:00:47.055Z,74.80
2018-11-07T16:03:17.877Z,75.45
2018-11-07T16:05:44.862Z,75.01
2018-11-07T16:08:11.807Z,75.50
2018-11-07T16:10:38.742Z,77.48
2018-11-07T16:13:05.699Z,76.60
2018-11-07T16:15:32.708Z,77.13
2018-11-07T16:17:59.628Z,77.71
2018-11-07T16:20:26.486Z,77.87
2018-11-07T16:22:53.507Z,78.70
2018-11-07T16:25:20.436Z,79.52
2018-11-07T16:27:47.368Z,78.71
2018-11-07T16:30:15.791Z,79.51
2018-11-07T16:32:42.767Z,77.70
2018-11-07T16:35:10.619Z,78.18
2018-11-07T16:37:37.579Z,77.69
2018-11-07T16:40:06.287Z,77.80
2018-11-07T16:42:33.242Z,77.45
2018-11-07T16:45:00.127Z,77.90
2018-11-07T16:47:27.126Z,77.56
2018-11-07T16:49:53.918Z,77.19
2018-11-07T16:52:20.866Z,76.78
2018-11-07T16:54:47.803Z,76.96
2018-11-07T16:57:14.693Z,78.00
2018-11-07T16:59:41.593Z,77.79
2018-11-07T17:02:08.535Z,78.13
2018-11-07T17:04:35.577Z,77.68
2018-11-07T17:07:02.443Z,78.93
2018-11-07T17:09:29.387Z,79.38
2018-11-07T17:11:57.243Z,77.75
2018-11-07T17:14:24.187Z,78.19
2018-11-07T17:16:51.131Z,78.56
2018-11-07T17:19:18.087Z,78.14
2018-11-07T17:21:45.019Z,77.36
2018-11-07T17:24:12.116Z,77.50
2018-11-07T17:26:38.984Z,77.96
2018-11-07T17:29:05.856Z,77.47
2018-11-07T17:31:32.772Z,78.02
2018-11-07T17:33:59.683Z,78.09
2018-11-07T17:36:26.594Z,78.78
2018-11-07T17:38:53.527Z,79.30
2018-11-07T17:41:20.550Z,79.30
2018-11-07T17:43:47.425Z,79.51
2018-11-07T17:46:14.366Z,79.74
2018-11-07T17:48:41.379Z,79.79
2018-11-07T17:51:08.250Z,80.90
2018-11-07T17:53:35.195Z,82.68
2018-11-07T17:56:02.055Z,82.80
2018-11-07T17:58:28.987Z,82.91
2018-11-07T18:00:55.943Z,82.62
2018-11-07T18:03:22.885Z,83.99
2018-11-07T18:05:49.847Z,81.92
2018-11-07T18:08:16.773Z,83.18
2018-11-07T18:10:43.714Z,83.15
2018-11-07T18:13:10.659Z,84.01
2018-11-07T18:15:37.623Z,84.28
2018-11-07T18:18:04.873Z,84.95
2018-11-07T18:20:31.891Z,85.73
2018-11-07T18:22:58.790Z,83.92
2018-11-07T18:25:25.710Z,84.20
2018-11-07T18:27:52.643Z,85.04
2018-11-07T18:30:19.595Z,86.52
2018-11-07T18:32:47.181Z,86.12
2018-11-07T18:35:15.631Z,86.36
2018-11-07T18:37:42.775Z,83.53
2018-11-07T18:40:11.083Z,84.51
2018-11-07T18:42:38.239Z,85.56
2018-11-07T18:45:07.386Z,86.15
2018-11-07T18:47:34.330Z,85.48
2018-11-07T18:50:01.200Z,86.10
2018-11-07T18:52:28.132Z,86.21
2018-11-07T18:54:55.078Z,87.11
2018-11-07T18:57:22.043Z,86.37
2018-11-07T18:59:48.971Z,86.06
2018-11-07T19:02:15.915Z,86.66
2018-11-07T19:04:43.883Z,85.71
2018-11-07T19:07:10.834Z,85.40
2018-11-07T19:09:37.859Z,86.54
2018-11-07T19:12:04.843Z,87.16
2018-11-07T19:14:31.759Z,87.78
2018-11-07T19:16:58.707Z,87.04
2018-11-07T19:19:25.646Z,85.98
2018-11-07T19:21:53.563Z,85.99
2018-11-07T19:24:21.519Z,84.43
2018-11-07T19:26:48.564Z,83.97
2018-11-07T19:29:15.386Z,85.61
2018-11-07T19:31:42.318Z,86.24
2018-11-07T19:34:09.574Z,85.89
2018-11-07T19:36:36.520Z,85.69
2018-11-07T19:39:06.167Z,86.60
2018-11-07T19:41:33.078Z,87.31
2018-11-07T19:44:00.039Z,87.53
2018-11-07T19:46:26.979Z,86.02
2018-11-07T19:48:53.900Z,86.35
2018-11-07T19:51:20.856Z,86.08
2018-11-07T19:53:47.803Z,86.00
2018-11-07T19:56:14.730Z,85.48
2018-11-07T19:58:41.691Z,85.90
2018-11-07T20:01:08.619Z,85.16
2018-11-07T20:03:35.565Z,84.58
2018-11-07T20:06:04.759Z,83.69
2018-11-07T20:08:31.599Z,84.58
2018-11-07T20:10:59.445Z,83.79
2018-11-07T20:13:26.317Z,84.34
2018-11-07T20:15:53.318Z,84.09
2018-11-07T20:18:20.223Z,84.05
2018-11-07T20:20:47.153Z,84.07
2018-11-07T20:23:14.142Z,84.81
2018-11-07T20:25:41.032Z,84.40
2018-11-07T20:28:07.974Z,84.84
2018-11-07T20:30:34.927Z,84.27
2018-11-07T20:33:01.867Z,85.27
2018-11-07T20:35:28.907Z,85.42
2018-11-07T20:37:56.686Z,85.47
2018-11-07T20:40:23.628Z,82.60
2018-11-07T20:42:50.582Z,84.92
2018-11-07T20:45:17.826Z,85.58
2018-11-07T20:47:45.815Z,85.67
2018-11-07T20:50:14.995Z,83.69
2018-11-07T20:52:43.362Z,85.08
2018-11-07T20:55:11.235Z,84.96
2018-11-07T20:57:38.282Z,85.75
2018-11-07T21:00:11.670Z,85.97
2018-11-07T21:02:38.923Z,86.70
2018-11-07T21:05:06.082Z,87.34
2018-11-07T21:07:32.914Z,88.38
2018-11-07T21:09:59.863Z,88.66
2018-11-07T21:12:26.802Z,88.64
2018-11-07T21:14:53.675Z,88.30
2018-11-07T21:17:20.595Z,86.57
2018-11-07T21:19:47.473Z,86.90
2018-11-07T21:22:14.410Z,87.05
2018-11-07T21:27:08.317Z,87.34
2018-11-07T21:29:36.136Z,88.03
2018-11-07T21:32:03.031Z,88.21
2018-11-07T21:34:30.091Z,87.70
2018-11-07T21:36:56.991Z,88.29
2018-11-07T21:39:23.937Z,87.60
2018-11-07T21:41:50.890Z,87.08
2018-11-07T21:44:17.814Z,85.38
2018-11-07T21:46:44.754Z,87.54
2018-11-07T21:49:11.699Z,87.86
2018-11-07T21:51:38.682Z,87.13
2018-11-07T21:54:05.614Z,86.54
2018-11-07T21:56:32.486Z,86.22
2018-11-07T21:59:00.438Z,87.17
2018-11-07T22:01:27.368Z,86.39
2018-11-07T22:03:54.293Z,86.35
2018-11-07T22:06:22.173Z,87.27
2018-11-07T22:08:49.102Z,87.28
2018-11-07T22:11:16.046Z,86.45
2018-11-07T22:13:43.010Z,86.45
2018-11-07T22:16:09.938Z,87.42
2018-11-07T22:18:36.883Z,86.57
2018-11-07T22:21:04.134Z,86.20
2018-11-07T22:23:31.084Z,86.41
2018-11-07T22:25:58.032Z,86.87
2018-11-07T22:28:25.064Z,84.76
2018-11-07T22:30:51.918Z,85.88
2018-11-07T22:33:18.855Z,86.58
2018-11-07T22:35:45.818Z,87.39
2018-11-07T22:38:12.754Z,86.59
2018-11-07T22:40:40.626Z,86.96
2018-11-07T22:43:07.569Z,86.09
2018-11-07T22:45:34.510Z,86.31
2018-11-07T22:48:01.463Z,86.00
2018-11-07T22:50:28.391Z,87.33
2018-11-07T22:52:55.346Z,86.84
2018-11-07T22:55:22.282Z,86.63
2018-11-07T22:57:49.247Z,86.64
2018-11-07T23:00:22.471Z,86.28
2018-11-07T23:02:51.618Z,85.87
2018-11-07T23:05:18.583Z,84.67
2018-11-07T23:07:45.607Z,85.94
2018-11-07T23:10:12.687Z,85.41
2018-11-07T23:12:39.610Z,86.46
2018-11-07T23:15:06.742Z,86.71
2018-11-07T23:17:33.710Z,86.46
2018-11-07T23:20:00.671Z,86.37
2018-11-07T23:22:27.591Z,86.73
2018-11-07T23:24:54.539Z,87.97
2018-11-07T23:27:21.514Z,89.21
2018-11-07T23:29:48.442Z,89.78
2018-11-07T23:32:15.371Z,90.23
2018-11-07T23:34:42.194Z,91.05
2018-11-07T23:37:09.062Z,91.50
2018-11-07T23:39:36.014Z,91.30
2018-11-07T23:42:02.982Z,90.58
2018-11-07T23:44:29.889Z,90.48
2018-11-07T23:46:56.826Z,91.14
2018-11-07T23:49:23.774Z,90.09
2018-11-07T23:51:50.727Z,90.07
2018-11-07T23:54:19.410Z,90.16
2018-11-07T23:56:46.351Z,90.44
2018-11-07T23:59:14.255Z,90.85
